Time;durP1;ratioP1;P1;durP2;ratioP2;P2;SDS_P1;SDS_P2;PMS_P1;PMS_P2;Temp;Humidity;BMP_temperature;BMP_pressure;BME280_temperature;BME280_humidity;BME280_pressure;Samples;Min_cycle;Max_cycle;Signal;HPM_P1;HPM_P2
2024/02/04 00:01:23;;;;;;;17.25;5.30;;;;;;;28.92;70.92;101302.88;5059106;28;70260;-42
2024/02/04 00:03:53;;;;;;;36.47;5.57;;;;;;;28.97;70.38;101307.66;5052087;28;66859;-41
2024/02/04 00:06:24;;;;;;;16.33;6.22;;;;;;;28.98;71.39;101309.34;5050902;28;70167;-41
2024/02/04 00:08:55;;;;;;;9.73;6.30;;;;;;;28.98;76.31;101303.94;5060667;28;66183;-42
2024/02/04 00:11:26;;;;;;;12.15;6.50;;;;;;;29.06;77.30;101311.94;5054397;28;71064;-42
2024/02/04 00:13:57;;;;;;;24.25;7.70;;;;;;;29.07;76.19;101307.34;5055021;28;65686;-43
2024/02/04 00:16:29;;;;;;;10.88;6.80;;;;;;;29.22;77.89;101318.03;5054543;28;70257;-42
2024/02/04 00:19:00;;;;;;;12.82;7.45;;;;;;;29.23;78.07;101328.66;5018835;28;66237;-42
2024/02/04 00:21:31;;;;;;;11.77;6.45;;;;;;;29.29;78.78;101332.44;5031673;28;68318;-45
2024/02/04 00:24:01;;;;;;;15.07;7.18;;;;;;;29.29;78.65;101338.66;5041031;28;66344;-41
2024/02/04 00:26:33;;;;;;;15.57;6.80;;;;;;;29.32;79.11;101338.25;5055504;28;69237;-42
2024/02/04 00:29:04;;;;;;;15.20;7.47;;;;;;;29.32;79.58;101340.97;5050836;28;65409;-41
2024/02/04 00:31:34;;;;;;;17.08;7.53;;;;;;;29.36;79.19;101339.53;5058245;28;69587;-42
2024/02/04 00:34:05;;;;;;;12.65;7.30;;;;;;;29.37;79.69;101343.91;5059824;28;66202;-42
2024/02/04 00:36:36;;;;;;;14.63;7.22;;;;;;;29.38;79.46;101342.88;5059772;28;69597;-42
2024/02/04 00:39:07;;;;;;;12.70;7.32;;;;;;;29.43;79.19;101341.44;5060717;28;66669;-42
2024/02/04 00:41:38;;;;;;;10.27;6.45;;;;;;;29.46;77.61;101354.56;5059410;28;69799;-42
2024/02/04 00:44:09;;;;;;;17.42;6.88;;;;;;;29.45;79.34;101342.06;5041051;28;65266;-41
2024/02/04 00:46:39;;;;;;;15.13;7.28;;;;;;;29.50;79.60;101355.81;5040546;28;70243;-41
2024/02/04 00:49:10;;;;;;;9.35;6.50;;;;;;;29.51;79.40;101358.34;5058411;28;65160;-41
2024/02/04 00:51:41;;;;;;;10.20;6.82;;;;;;;29.51;79.56;101354.81;5060188;28;70378;-42
2024/02/04 00:54:12;;;;;;;8.30;6.72;;;;;;;29.56;79.55;101365.81;5061506;28;65675;-41
2024/02/04 00:56:43;;;;;;;15.50;6.80;;;;;;;29.56;79.61;101366.69;5058672;28;70423;-42
2024/02/04 00:59:14;;;;;;;12.90;7.13;;;;;;;29.52;79.76;101353.75;5044334;28;66475;-43
2024/02/04 01:01:44;;;;;;;8.15;6.72;;;;;;;29.59;79.59;101360.03;5060161;28;70266;-42
2024/02/04 01:04:15;;;;;;;8.88;7.05;;;;;;;29.62;79.59;101370.44;5058950;28;66477;-42
2024/02/04 01:06:46;;;;;;;11.48;6.70;;;;;;;29.60;79.77;101372.50;5061829;28;69593;-43
2024/02/04 01:09:30;;;;;;;8.38;7.15;;;;;;;29.53;80.13;101350.00;5058073;28;66228;-42
2024/02/04 01:12:00;;;;;;;8.98;6.90;;;;;;;29.66;79.92;101381.72;5059343;28;70064;-41
2024/02/04 01:14:31;;;;;;;11.07;6.60;;;;;;;29.62;79.88;101375.84;5060261;28;66567;-42
2024/02/04 01:17:02;;;;;;;9.82;7.57;;;;;;;29.67;79.92;101384.25;5056379;28;70946;-42
2024/02/04 01:19:34;;;;;;;7.93;6.95;;;;;;;29.69;79.79;101389.44;5059815;28;66374;-43
2024/02/04 01:22:05;;;;;;;7.82;7.10;;;;;;;29.66;79.41;101393.38;5061742;28;70219;-43
2024/02/04 01:24:36;;;;;;;12.00;8.13;;;;;;;29.53;79.61;101366.22;5057143;28;66699;-43
2024/02/04 01:27:08;;;;;;;8.50;7.65;;;;;;;29.62;79.54;101381.25;5059663;28;70824;-42
2024/02/04 01:29:38;;;;;;;10.10;8.38;;;;;;;29.71;79.87;101399.00;5028905;28;65540;-42
2024/02/04 01:32:09;;;;;;;12.60;8.70;;;;;;;29.74;79.26;101400.50;5040782;28;71727;-42
2024/02/04 01:34:40;;;;;;;10.32;8.48;;;;;;;29.75;79.93;101408.38;5040788;28;66309;-41
2024/02/04 01:37:11;;;;;;;16.25;8.57;;;;;;;29.73;80.00;101398.84;5039913;28;70746;-41
2024/02/04 01:39:42;;;;;;;9.88;8.02;;;;;;;29.79;79.44;101404.25;5035737;28;65929;-42
2024/02/04 01:42:13;;;;;;;10.20;8.65;;;;;;;29.80;79.89;101414.03;5054571;28;70742;-41
2024/02/04 01:44:44;;;;;;;11.80;8.63;;;;;;;29.81;79.17;101418.44;5052969;28;66768;-42
2024/02/04 01:47:14;;;;;;;15.70;8.80;;;;;;;29.82;80.12;101427.38;5045271;28;70764;-42
2024/02/04 01:49:45;;;;;;;14.57;8.13;;;;;;;29.83;79.96;101421.75;5026888;28;65455;-42
2024/02/04 01:52:17;;;;;;;18.08;8.68;;;;;;;29.78;79.71;101413.41;5055158;28;70239;-42
2024/02/04 01:54:49;;;;;;;20.88;9.52;;;;;;;29.83;80.38;101421.75;5047544;28;66108;-43
2024/02/04 01:57:20;;;;;;;10.48;8.05;;;;;;;29.85;79.49;101424.25;5051505;28;70425;-43
2024/02/04 01:59:54;;;;;;;22.95;9.27;;;;;;;29.90;80.60;101442.59;5045817;28;66133;-42
2024/02/04 02:02:26;;;;;;;15.82;8.95;;;;;;;29.88;80.48;101425.72;5054325;28;69232;-42
2024/02/04 02:04:57;;;;;;;;;;;;;;;29.76;81.35;101429.00;5053801;28;65649;-43
2024/02/04 02:07:28;;;;;;;15.98;9.13;;;;;;;29.90;80.29;101431.78;5059607;28;70561;-44
2024/02/04 02:10:00;;;;;;;19.80;9.18;;;;;;;29.96;81.19;101431.81;5061483;28;65836;-43
2024/02/04 02:12:56;;;;;;;16.03;9.87;;;;;;;29.97;80.97;101424.50;5062940;28;69632;-45
2024/02/04 02:15:39;;;;;;;13.93;9.13;;;;;;;29.56;81.46;101357.72;5037779;28;65318;-43
2024/02/04 02:18:26;;;;;;;13.77;8.65;;;;;;;30.02;81.69;101440.97;5060745;28;70368;-44
2024/02/04 02:21:04;;;;;;;13.80;9.10;;;;;;;30.05;81.29;101443.28;5043855;28;65120;-44
2024/02/04 02:23:43;;;;;;;10.80;8.50;;;;;;;30.08;81.06;101451.00;5060554;28;70251;-42
2024/02/04 02:26:15;;;;;;;20.13;9.48;;;;;;;30.11;80.50;101447.88;5042584;28;65648;-44
2024/02/04 02:28:47;;;;;;;8.55;7.60;;;;;;;30.11;80.40;101444.34;5057467;28;69890;-43
2024/02/04 02:31:18;;;;;;;14.30;8.52;;;;;;;30.03;80.28;101421.00;5061558;28;66599;-44
2024/02/04 02:34:00;;;;;;;11.88;8.25;;;;;;;30.06;77.85;101431.41;5059428;28;70355;-46
2024/02/04 02:36:49;;;;;;;16.90;8.00;;;;;;;30.11;78.32;101439.75;5059482;28;66654;-42
2024/02/04 02:39:28;;;;;;;11.75;7.63;;;;;;;30.02;76.71;101419.34;5051225;28;71270;-45
2024/02/04 02:42:04;;;;;;;9.07;8.07;;;;;;;29.98;73.00;101431.63;5063594;28;65076;-44
2024/02/04 02:44:39;;;;;;;14.27;7.50;;;;;;;29.74;71.20;101406.72;5046932;28;69788;-44
2024/02/04 02:47:10;;;;;;;12.20;8.38;;;;;;;29.76;69.61;101428.16;5046520;28;66268;-43
2024/02/04 02:49:42;;;;;;;19.48;6.70;;;;;;;29.70;69.16;101426.25;5047544;28;70139;-43
2024/02/04 02:52:13;;;;;;;15.45;6.45;;;;;;;29.57;67.60;101416.16;5058166;28;66793;-42
2024/02/04 02:54:44;;;;;;;8.88;6.22;;;;;;;29.60;68.59;101432.00;5050883;28;69711;-40
2024/02/04 02:57:14;;;;;;;11.45;7.38;;;;;;;29.54;66.22;101427.38;5062409;28;66766;-42
2024/02/04 02:59:45;;;;;;;8.57;7.25;;;;;;;29.49;66.26;101441.47;5059065;28;70032;-41
2024/02/04 03:02:16;;;;;;;6.57;6.07;;;;;;;29.40;65.22;101424.59;5053347;28;66082;-42
2024/02/04 03:04:46;;;;;;;10.52;6.47;;;;;;;29.38;64.67;101423.94;5059057;28;70339;-41
2024/02/04 03:07:17;;;;;;;6.50;6.00;;;;;;;29.29;64.36;101419.72;5051203;28;66412;-40
2024/02/04 03:09:49;;;;;;;;;;;;;;;29.15;63.85;101434.16;5049588;28;70124;-42
2024/02/04 03:12:20;;;;;;;16.55;6.63;;;;;;;29.20;63.35;101415.50;5047785;28;66878;-42
2024/02/04 03:14:51;;;;;;;;;;;;;;;29.07;62.52;101431.59;5044666;28;70459;-43
2024/02/04 03:17:22;;;;;;;35.88;6.43;;;;;;;29.10;60.71;101425.81;5049906;28;66391;-43
2024/02/04 03:19:54;;;;;;;14.50;6.47;;;;;;;29.02;60.32;101431.31;5040575;28;70258;-44
2024/02/04 03:22:26;;;;;;;;;;;;;;;28.84;59.25;101424.53;5048474;28;67143;-42
2024/02/04 03:24:57;;;;;;;7.22;6.10;;;;;;;28.88;59.07;101423.09;5050943;28;69449;-42
2024/02/04 03:27:28;;;;;;;19.38;5.45;;;;;;;28.79;58.70;101418.84;5052797;28;66173;-41
2024/02/04 03:30:01;;;;;;;12.30;5.53;;;;;;;28.80;57.63;101419.69;5040116;28;70135;-42
2024/02/04 03:32:33;;;;;;;;;;;;;;;28.64;57.83;101412.66;5059299;28;66295;-43
2024/02/04 03:35:04;;;;;;;21.08;6.50;;;;;;;28.74;58.15;101405.09;5057719;28;70074;-42
2024/02/04 03:37:35;;;;;;;18.08;5.50;;;;;;;28.69;57.68;101394.03;5058907;28;66082;-42
2024/02/04 03:40:07;;;;;;;19.42;5.72;;;;;;;28.69;57.42;101394.03;5041462;28;69408;-43
2024/02/04 03:42:40;;;;;;;19.95;5.28;;;;;;;28.63;57.45;101381.31;5056442;28;66238;-42
2024/02/04 03:45:11;;;;;;;28.30;6.35;;;;;;;28.72;57.29;101388.25;5040242;28;69697;-45
2024/02/04 03:47:42;;;;;;;35.20;5.72;;;;;;;28.71;57.12;101384.72;5049271;28;66346;-43
2024/02/04 03:50:13;;;;;;;25.33;5.82;;;;;;;28.74;58.62;101376.22;5045933;28;69748;-46
2024/02/04 03:52:44;;;;;;;20.45;6.18;;;;;;;28.47;58.34;101315.78;5049120;28;67307;-45
2024/02/04 03:55:17;;;;;;;20.23;6.30;;;;;;;28.78;57.65;101363.19;5049518;28;69272;-45
2024/02/04 03:57:48;;;;;;;22.27;6.15;;;;;;;28.79;58.31;101364.03;5023422;28;66161;-44
2024/02/04 04:00:19;;;;;;;11.38;5.88;;;;;;;28.81;58.09;101352.00;5047076;28;70718;-46
2024/02/04 04:02:50;;;;;;;9.73;5.82;;;;;;;28.83;58.13;101344.53;5044068;28;66955;-47
2024/02/04 04:05:20;;;;;;;22.23;6.00;;;;;;;28.85;57.69;101342.47;5056988;28;70425;-45
2024/02/04 04:07:51;;;;;;;14.10;5.75;;;;;;;28.88;57.51;101342.06;5058845;28;66515;-46
2024/02/04 04:10:22;;;;;;;26.85;6.00;;;;;;;28.88;57.52;101330.44;5046940;28;69970;-44
2024/02/04 04:12:53;;;;;;;14.35;5.35;;;;;;;28.85;57.07;101320.88;5024075;28;66015;-46
2024/02/04 04:15:24;;;;;;;13.63;5.15;;;;;;;28.86;56.42;101311.75;5057982;28;70320;-42
2024/02/04 04:17:54;;;;;;;12.75;5.68;;;;;;;28.90;56.79;101323.81;5057709;28;66198;-44
2024/02/04 04:20:25;;;;;;;12.60;6.40;;;;;;;28.83;57.39;101306.72;5053932;28;69699;-41
2024/02/04 04:22:55;;;;;;;7.78;5.60;;;;;;;28.88;56.57;101315.06;5051655;28;66737;-41
2024/02/04 04:25:26;;;;;;;9.25;6.00;;;;;;;28.88;56.34;101304.28;5058154;28;70005;-41
2024/02/04 04:27:58;;;;;;;12.60;6.45;;;;;;;28.88;56.57;101306.97;5059353;28;65957;-42
2024/02/04 04:30:29;;;;;;;9.23;6.20;;;;;;;28.83;55.36;101295.91;5058161;28;70095;-41
2024/02/04 04:33:00;;;;;;;18.27;6.40;;;;;;;28.80;55.21;101290.09;5026506;28;66108;-42
2024/02/04 04:35:31;;;;;;;13.33;6.43;;;;;;;28.77;54.77;101285.91;5059724;28;70306;-42
2024/02/04 04:38:01;;;;;;;12.30;6.13;;;;;;;28.64;56.29;101254.28;5052791;28;66546;-40
2024/02/04 04:40:32;;;;;;;7.43;5.85;;;;;;;28.77;55.01;101267.00;5053134;28;69539;-42
2024/02/04 04:43:02;;;;;;;11.15;6.13;;;;;;;28.80;54.45;101268.50;5063613;28;66283;-41
2024/02/04 04:45:34;;;;;;;14.60;7.45;;;;;;;28.74;53.48;101253.91;5058070;28;69985;-44
2024/02/04 04:48:07;;;;;;;10.02;6.75;;;;;;;28.75;53.87;101244.78;5048026;28;66219;-41
2024/02/04 04:50:38;;;;;;;7.50;6.78;;;;;;;28.73;53.42;101236.88;5059370;28;69599;-41
2024/02/04 04:53:09;;;;;;;10.93;6.90;;;;;;;28.73;54.00;101231.50;5061379;28;67440;-42
2024/02/04 04:55:39;;;;;;;9.27;7.03;;;;;;;28.77;52.21;101229.22;5053881;28;70570;-42
2024/02/04 04:58:10;;;;;;;8.40;7.20;;;;;;;28.77;53.55;101223.81;5057212;28;66562;-42
2024/02/04 05:00:41;;;;;;;8.48;7.78;;;;;;;28.78;52.25;101222.81;5061231;28;69741;-42
2024/02/04 05:03:12;;;;;;;8.85;7.45;;;;;;;28.74;52.41;101216.13;5062191;28;65926;-42
2024/02/04 05:05:42;;;;;;;9.07;8.38;;;;;;;28.74;53.07;101216.13;5062414;28;69351;-42
2024/02/04 05:08:16;;;;;;;8.80;7.95;;;;;;;28.72;52.03;101213.63;5037119;28;65611;-41
2024/02/04 05:10:47;;;;;;;12.88;8.50;;;;;;;28.71;52.18;101208.41;5051494;28;69584;-40
2024/02/04 05:13:17;;;;;;;12.73;8.45;;;;;;;28.79;54.50;101207.44;5053004;28;66316;-41
2024/02/04 05:15:49;;;;;;;9.80;8.50;;;;;;;28.80;54.47;101209.09;5048470;28;69416;-39
2024/02/04 05:18:20;;;;;;;11.93;8.65;;;;;;;28.83;53.98;101206.81;5055332;28;65239;-41
2024/02/04 05:20:50;;;;;;;11.60;8.25;;;;;;;28.87;55.09;101205.41;5057154;28;70158;-42
2024/02/04 05:23:21;;;;;;;17.38;8.45;;;;;;;28.86;54.06;101198.34;5057509;28;66547;-41
2024/02/04 05:25:51;;;;;;;15.73;9.25;;;;;;;28.85;53.32;101195.84;5042323;28;69337;-42
2024/02/04 05:28:22;;;;;;;11.05;8.15;;;;;;;28.85;54.05;101185.84;5050222;28;66538;-42
2024/02/04 05:30:53;;;;;;;13.85;8.32;;;;;;;28.95;55.10;101193.63;5040870;28;69709;-42
2024/02/04 05:33:24;;;;;;;12.40;8.75;;;;;;;28.94;53.75;101189.22;5054810;28;65578;-43
2024/02/04 05:35:55;;;;;;;13.18;8.77;;;;;;;28.98;53.58;101179.72;5061089;28;70749;-44
2024/02/04 05:38:26;;;;;;;9.20;8.32;;;;;;;29.01;53.46;101182.00;5042813;28;65580;-42
2024/02/04 05:40:56;;;;;;;9.55;8.60;;;;;;;29.01;53.76;101167.66;5061897;28;70017;-41
2024/02/04 05:43:27;;;;;;;11.13;8.93;;;;;;;29.07;55.46;101162.31;5066396;28;66215;-40
2024/02/04 05:45:58;;;;;;;11.45;8.93;;;;;;;29.13;55.88;101157.97;5060004;28;69373;-42
2024/02/04 05:48:29;;;;;;;14.38;8.63;;;;;;;29.11;55.76;101151.94;5061613;28;66990;-42
2024/02/04 05:51:01;;;;;;;10.32;9.30;;;;;;;29.13;54.58;101149.88;5060453;28;70371;-43
2024/02/04 05:53:32;;;;;;;19.08;9.15;;;;;;;29.15;54.95;101142.41;5061551;28;66832;-41
2024/02/04 05:56:03;;;;;;;13.23;8.60;;;;;;;29.20;55.19;101139.09;5061091;28;70616;-42
2024/02/04 05:58:33;;;;;;;9.73;8.60;;;;;;;29.14;54.84;101129.91;5060553;28;65323;-42
2024/02/04 06:01:04;;;;;;;11.18;8.77;;;;;;;29.18;55.41;101125.78;5062036;28;69304;-45
2024/02/04 06:03:35;;;;;;;10.02;9.13;;;;;;;29.22;55.34;101132.44;5054999;28;65421;-44
2024/02/04 06:06:06;;;;;;;8.55;7.95;;;;;;;29.22;55.12;101118.09;5051364;28;69859;-40
2024/02/04 06:08:37;;;;;;;15.32;9.30;;;;;;;29.24;55.39;101114.16;5059547;28;66415;-41
2024/02/04 06:11:11;;;;;;;16.77;8.35;;;;;;;29.12;53.08;101105.00;5038122;28;69807;-41
2024/02/04 06:13:43;;;;;;;8.50;7.80;;;;;;;28.44;53.79;100984.25;5044427;28;66325;-41
2024/02/04 06:16:15;;;;;;;11.70;8.82;;;;;;;29.23;54.42;101108.97;5059112;28;70691;-42
2024/02/04 06:18:46;;;;;;;9.45;8.50;;;;;;;29.18;53.18;101096.91;5058693;28;66479;-42
2024/02/04 06:21:16;;;;;;;10.23;8.35;;;;;;;29.22;53.21;101093.78;5056070;28;70451;-42
2024/02/04 06:23:47;;;;;;;24.52;8.32;;;;;;;29.25;53.20;101096.09;5057117;28;67286;-43
2024/02/04 06:26:18;;;;;;;31.70;10.02;;;;;;;29.18;54.40;101071.75;5059622;28;69740;-42
2024/02/04 06:28:50;;;;;;;11.30;8.77;;;;;;;29.28;54.29;101088.44;5059060;28;67233;-42
2024/02/04 06:31:22;;;;;;;20.77;8.93;;;;;;;29.30;54.07;101086.31;5059199;28;70058;-42
2024/02/04 06:33:54;;;;;;;13.30;8.75;;;;;;;29.18;52.26;101060.97;5058360;28;66640;-42
2024/02/04 06:36:25;;;;;;;12.57;9.43;;;;;;;29.29;53.36;101073.88;5056638;28;69434;-43
2024/02/04 06:38:56;;;;;;;13.63;8.98;;;;;;;29.13;52.65;101058.03;5057688;28;66153;-42
2024/02/04 06:41:26;;;;;;;11.50;9.00;;;;;;;29.26;51.64;101062.66;5058862;28;70032;-42
2024/02/04 06:43:57;;;;;;;8.52;7.88;;;;;;;29.26;51.77;101063.47;5060811;28;66144;-42
2024/02/04 06:46:28;;;;;;;9.38;8.55;;;;;;;28.88;53.09;100996.44;5047263;28;70453;-42
2024/02/04 06:48:59;;;;;;;11.32;8.38;;;;;;;29.29;52.70;101063.06;5055761;28;66803;-42
2024/02/04 06:51:29;;;;;;;12.70;9.15;;;;;;;29.27;51.45;101048.91;5059856;28;70603;-42
2024/02/04 06:54:01;;;;;;;9.60;8.07;;;;;;;29.29;52.23;101052.25;5060476;28;67077;-42
2024/02/04 06:56:32;;;;;;;;;;;;;;;29.13;51.04;101042.66;5056743;28;68584;-41
2024/02/04 06:59:03;;;;;;;9.43;8.57;;;;;;;29.30;52.73;101037.69;5061096;28;65584;-41
2024/02/04 07:01:33;;;;;;;10.50;8.02;;;;;;;29.28;50.71;101039.78;5047384;28;69889;-41
2024/02/04 07:04:04;;;;;;;9.00;8.40;;;;;;;29.32;52.11;101041.03;5033427;28;64871;-40
2024/02/04 07:06:35;;;;;;;12.77;9.43;;;;;;;29.33;51.79;101031.03;5056807;28;69419;-41
2024/02/04 07:09:06;;;;;;;10.20;9.20;;;;;;;29.26;50.44;101030.22;5041877;28;65568;-42
2024/02/04 07:11:38;;;;;;;8.87;8.10;;;;;;;28.89;51.80;100954.94;5055818;28;69593;-43
2024/02/04 07:14:09;;;;;;;9.25;8.55;;;;;;;29.32;50.26;101018.59;5049610;28;65571;-42
2024/02/04 07:16:40;;;;;;;8.93;8.02;;;;;;;29.26;50.56;101009.44;5043208;28;69605;-42
2024/02/04 07:19:11;;;;;;;9.18;8.48;;;;;;;29.36;50.57;101020.69;5031706;28;66731;-41
2024/02/04 07:21:43;;;;;;;9.15;8.35;;;;;;;29.39;51.33;101004.06;5050340;28;70366;-43
2024/02/04 07:24:14;;;;;;;11.40;8.50;;;;;;;29.33;50.29;100999.44;5047219;28;65998;-42
2024/02/04 07:26:46;;;;;;;9.13;8.43;;;;;;;29.42;50.08;101001.94;5041838;28;69610;-41
2024/02/04 07:29:17;;;;;;;9.35;8.52;;;;;;;29.38;50.99;100994.25;5040854;28;65637;-42
2024/02/04 07:31:48;;;;;;;8.65;8.10;;;;;;;29.43;50.89;101000.94;5045439;28;71555;-42
2024/02/04 07:34:19;;;;;;;8.48;7.88;;;;;;;29.43;50.10;100998.22;5056294;28;65774;-42
2024/02/04 07:36:52;;;;;;;9.27;8.50;;;;;;;29.46;50.51;100987.81;5055436;28;70942;-43
2024/02/04 07:39:23;;;;;;;9.45;8.20;;;;;;;29.32;49.61;100964.53;5058575;28;66328;-42
2024/02/04 07:41:55;;;;;;;8.63;7.95;;;;;;;29.40;51.02;100978.69;5064610;28;69971;-43
2024/02/04 07:44:28;;;;;;;9.80;8.80;;;;;;;29.32;49.81;100949.16;5056148;28;66167;-43
2024/02/04 07:46:58;;;;;;;;;;;;;;;29.40;49.54;100986.78;5054865;28;69639;-42
2024/02/04 07:49:28;;;;;;;12.00;8.65;;;;;;;29.53;49.83;100979.69;5059623;28;66509;-42
2024/02/04 07:51:59;;;;;;;9.38;8.57;;;;;;;29.57;50.74;100978.25;5050242;28;69896;-43
2024/02/04 07:54:29;;;;;;;9.35;8.30;;;;;;;29.53;50.47;100977.00;5067565;28;66366;-42
2024/02/04 07:57:00;;;;;;;9.85;8.95;;;;;;;29.55;49.63;100981.16;5061069;28;69869;-44
2024/02/04 07:59:31;;;;;;;9.88;8.88;;;;;;;29.58;51.13;100988.00;5060301;28;65848;-44
2024/02/04 08:02:02;;;;;;;9.20;8.27;;;;;;;29.49;49.62;100971.19;5059457;28;69913;-43
2024/02/04 08:04:32;;;;;;;9.02;8.20;;;;;;;29.54;49.93;100981.38;5060428;28;66370;-43
2024/02/04 08:07:03;;;;;;;10.18;9.20;;;;;;;29.58;49.62;100986.13;5052644;28;70440;-43
2024/02/04 08:09:35;;;;;;;9.55;8.85;;;;;;;29.58;50.05;100988.00;5043169;28;66593;-42
2024/02/04 08:12:05;;;;;;;9.43;8.65;;;;;;;29.61;49.87;100987.59;5049484;28;70137;-41
2024/02/04 08:14:36;;;;;;;10.65;9.55;;;;;;;29.63;50.04;100982.84;5041942;28;65946;-41
2024/02/04 08:17:07;;;;;;;9.63;8.85;;;;;;;29.62;49.20;100981.16;5042458;28;70346;-41
2024/02/04 08:19:37;;;;;;;10.63;9.70;;;;;;;29.64;49.20;100989.91;5041814;28;66129;-41
2024/02/04 08:22:08;;;;;;;9.63;8.85;;;;;;;29.61;50.31;100974.06;5039352;28;70452;-42
2024/02/04 08:24:39;;;;;;;11.23;9.20;;;;;;;29.54;50.14;100968.69;5052069;28;67418;-39
2024/02/04 08:27:10;;;;;;;10.65;9.65;;;;;;;29.70;52.02;100986.41;5031564;28;69904;-43
2024/02/04 08:29:41;;;;;;;15.95;10.40;;;;;;;29.72;51.59;100983.47;5043053;28;66677;-41
2024/02/04 08:32:13;;;;;;;10.88;9.73;;;;;;;29.70;51.90;100978.28;5058731;28;69472;-42
2024/02/04 08:34:44;;;;;;;14.77;9.82;;;;;;;29.73;53.23;100977.03;5054188;28;66812;-42
2024/02/04 08:37:15;;;;;;;25.05;10.45;;;;;;;29.88;53.33;100990.31;5053886;28;69551;-42
2024/02/04 08:39:46;;;;;;;10.65;9.73;;;;;;;29.91;52.92;100985.31;5056536;28;66694;-42
2024/02/04 08:42:17;;;;;;;13.60;10.38;;;;;;;29.97;53.55;100989.03;5051984;28;69992;-42
2024/02/04 08:44:48;;;;;;;11.30;10.07;;;;;;;30.02;53.13;100986.53;5026334;28;66038;-41
2024/02/04 08:47:19;;;;;;;9.90;9.10;;;;;;;30.00;53.47;100975.91;5046478;28;70238;-42
2024/02/04 08:49:49;;;;;;;10.38;9.07;;;;;;;30.11;53.82;100979.84;5053932;28;67584;-40
2024/02/04 08:52:20;;;;;;;9.80;8.82;;;;;;;30.26;53.85;100988.56;5050603;28;70453;-42
2024/02/04 08:54:51;;;;;;;9.85;8.35;;;;;;;30.42;53.91;100999.94;5046470;28;65457;-40
2024/02/04 08:57:22;;;;;;;10.48;9.50;;;;;;;30.48;54.33;100994.53;5052689;28;70467;-42
2024/02/04 08:59:53;;;;;;;12.73;8.45;;;;;;;30.68;54.90;101007.13;5043944;28;67097;-43
2024/02/04 09:02:23;;;;;;;9.10;8.27;;;;;;;30.82;56.33;101016.88;5048980;28;69758;-42
2024/02/04 09:04:54;;;;;;;9.20;8.50;;;;;;;31.00;57.00;101016.13;5051821;28;65289;-42
2024/02/04 09:07:25;;;;;;;10.48;9.50;;;;;;;31.09;57.36;101020.28;5043626;28;69723;-43
2024/02/04 09:09:59;;;;;;;8.85;8.02;;;;;;;31.21;58.25;101025.00;5042552;28;66507;-42
2024/02/04 09:12:30;;;;;;;10.18;9.32;;;;;;;31.28;58.21;101028.47;5050826;28;69854;-42
2024/02/04 09:15:01;;;;;;;9.73;8.57;;;;;;;31.40;58.78;101032.19;5048133;28;65538;-43
2024/02/04 09:17:35;;;;;;;10.43;8.57;;;;;;;31.49;58.89;101030.84;5051518;28;69550;-42
2024/02/04 09:20:07;;;;;;;8.02;7.43;;;;;;;31.56;59.13;101031.59;5052825;28;67035;-43
2024/02/04 09:22:39;;;;;;;13.93;8.23;;;;;;;31.68;59.14;101033.59;5055402;28;70414;-42
2024/02/04 09:25:10;;;;;;;9.05;8.15;;;;;;;31.75;59.39;101042.50;5061316;28;66461;-43
2024/02/04 09:27:40;;;;;;;9.93;8.85;;;;;;;31.82;59.84;101044.13;5050993;28;70597;-42
2024/02/04 09:30:12;;;;;;;10.32;9.20;;;;;;;31.88;59.40;101042.41;5043052;28;66005;-43
2024/02/04 09:32:43;;;;;;;9.63;8.82;;;;;;;31.94;60.31;101049.66;5060925;28;69711;-43
2024/02/04 09:35:14;;;;;;;9.70;8.30;;;;;;;32.01;59.94;101050.44;5061297;28;65986;-42
2024/02/04 09:37:45;;;;;;;9.33;7.93;;;;;;;32.05;60.07;101057.06;5060677;28;70327;-43
2024/02/04 09:40:16;;;;;;;14.85;9.75;;;;;;;32.04;63.28;101060.03;5059569;28;67074;-44
2024/02/04 09:42:48;;;;;;;9.20;8.23;;;;;;;31.97;64.39;101076.34;5064590;28;70994;-43
2024/02/04 09:45:19;;;;;;;9.73;8.75;;;;;;;31.94;63.21;101076.78;5059171;28;66957;-42
2024/02/04 09:47:53;;;;;;;9.65;8.77;;;;;;;31.49;65.00;101020.00;5057090;28;69895;-43
2024/02/04 09:50:24;;;;;;;13.55;9.30;;;;;;;31.78;64.90;101074.59;5059557;28;66703;-42
2024/02/04 09:53:02;;;;;;;13.73;10.17;;;;;;;31.85;65.51;101090.84;5060308;28;70799;-42
2024/02/04 09:55:33;;;;;;;13.40;9.52;;;;;;;31.85;65.25;101093.56;5060114;28;65320;-43
2024/02/04 09:58:04;;;;;;;12.02;9.15;;;;;;;31.88;64.80;101093.94;5054568;28;69492;-42
2024/02/04 10:00:38;;;;;;;8.35;7.75;;;;;;;31.98;62.68;101102.44;5047350;28;65965;-44
2024/02/04 10:03:09;;;;;;;9.15;8.18;;;;;;;32.09;62.14;101108.16;5059651;28;70692;-42
2024/02/04 10:05:40;;;;;;;12.43;8.18;;;;;;;32.13;62.16;101114.84;5059781;28;66247;-42
2024/02/04 10:08:11;;;;;;;14.10;8.52;;;;;;;32.18;62.24;101120.38;5058494;28;70766;-42
2024/02/04 10:10:45;;;;;;;12.63;8.32;;;;;;;32.17;62.58;101107.88;5060844;28;66717;-43
2024/02/04 10:13:16;;;;;;;8.17;7.37;;;;;;;32.13;63.18;101106.69;5060988;28;69866;-43
2024/02/04 10:15:47;;;;;;;8.75;7.95;;;;;;;32.26;62.56;101126.38;5058926;28;66720;-43
2024/02/04 10:18:18;;;;;;;12.57;7.80;;;;;;;32.32;62.52;101131.94;5061081;28;70169;-42
2024/02/04 10:20:49;;;;;;;9.02;7.68;;;;;;;32.35;62.76;101132.34;5041894;28;66664;-42
2024/02/04 10:23:20;;;;;;;9.98;7.00;;;;;;;32.33;63.53;101129.03;5058340;28;69608;-42
2024/02/04 10:25:59;;;;;;;8.35;7.57;;;;;;;32.01;66.10;101091.16;5059944;28;66473;-44
2024/02/04 10:28:34;;;;;;;9.18;8.32;;;;;;;32.39;63.21;101138.16;5048636;28;69667;-44
2024/02/04 10:31:05;;;;;;;12.90;7.75;;;;;;;32.10;63.38;101094.41;5050212;28;66361;-43
2024/02/04 10:33:37;;;;;;;12.73;7.68;;;;;;;32.43;63.12;101144.78;5058008;28;69753;-43
2024/02/04 10:36:09;;;;;;;7.53;7.03;;;;;;;32.47;62.88;101146.03;5045245;28;66102;-45
2024/02/04 10:38:40;;;;;;;7.15;6.40;;;;;;;32.46;63.25;101145.22;5050997;28;70152;-44
2024/02/04 10:41:16;;;;;;;7.60;6.85;;;;;;;32.52;64.30;101148.09;5054458;28;66747;-45
2024/02/04 10:43:47;;;;;;;6.18;5.65;;;;;;;32.53;63.09;101160.59;5057387;28;70572;-43
2024/02/04 10:46:20;;;;;;;7.50;5.78;;;;;;;32.08;63.08;101082.09;5060058;28;66221;-44
2024/02/04 10:49:01;;;;;;;6.20;5.60;;;;;;;32.41;65.28;101142.31;5058324;28;70549;-43
2024/02/04 10:51:35;;;;;;;8.17;6.23;;;;;;;31.98;68.20;101097.00;5059374;28;65606;-44
2024/02/04 10:54:08;;;;;;;7.93;5.13;;;;;;;32.26;69.18;101160.81;5059352;28;70437;-46
2024/02/04 10:56:46;;;;;;;9.75;5.20;;;;;;;31.95;69.21;101116.44;5054247;28;66230;-43
2024/02/04 10:59:19;;;;;;;5.45;4.95;;;;;;;32.19;69.37;101170.94;5043348;28;69767;-43
2024/02/04 11:01:51;;;;;;;6.82;5.07;;;;;;;32.16;69.88;101182.22;5036426;28;65533;-42
2024/02/04 11:04:23;;;;;;;5.38;4.97;;;;;;;32.15;70.31;101175.13;5030738;28;69819;-41
2024/02/04 11:06:54;;;;;;;;;;;;;;;31.95;71.61;101170.69;5039888;28;66725;-42
2024/02/04 11:09:26;;;;;;;6.10;5.40;;;;;;;32.04;70.46;101180.25;5037948;28;70725;-42
2024/02/04 11:12:00;;;;;;;9.70;4.63;;;;;;;32.05;70.35;101179.19;5034641;28;66742;-43
2024/02/04 11:14:32;;;;;;;4.90;4.18;;;;;;;31.98;71.14;101174.84;5053750;28;70197;-43
2024/02/04 11:17:45;;;;;;;9.10;4.07;;;;;;;31.98;71.38;101191.97;5037091;28;66213;-43
2024/02/04 11:20:43;;;;;;;6.35;4.47;;;;;;;31.97;71.72;101193.00;5029313;28;43155;-42
2024/02/04 11:23:43;;;;;;;5.55;4.40;;;;;;;31.90;71.13;101184.09;5044714;28;66732;-42
2024/02/04 11:26:19;;;;;;;6.30;5.10;;;;;;;31.96;72.41;101204.94;5027012;28;69853;-42
2024/02/04 11:28:50;;;;;;;6.97;4.43;;;;;;;31.95;72.59;101199.72;5052531;28;65196;-43
2024/02/04 11:31:23;;;;;;;5.35;4.75;;;;;;;31.98;71.54;101208.25;5053633;28;70990;-43
2024/02/04 11:33:55;;;;;;;6.20;5.55;;;;;;;31.94;72.74;101207.03;5019527;28;65130;-44
2024/02/04 11:36:26;;;;;;;8.43;4.90;;;;;;;31.95;72.72;101216.81;5041457;28;69278;-42
2024/02/04 11:38:57;;;;;;;5.90;5.37;;;;;;;31.92;72.36;101219.97;5053755;28;65601;-43
2024/02/04 11:41:28;;;;;;;6.10;5.50;;;;;;;31.87;72.81;101205.38;5049248;28;70553;-42
2024/02/04 11:44:04;;;;;;;6.23;5.43;;;;;;;31.91;72.91;101212.88;5057338;28;66140;-45